CYTZ/YTZ METAR and TAF weather

Enter ICAO airport designator
Station Type Date Time Source
CYTZ METAR 2017/03/23 17:00 UTC NOAA

CYTZ 231700Z AUTO 21006KT 160V230 9SM CLR M01/M08 A3060 RMK SLP367


Station Type Date Time Source
CYTZ Decoded METAR 2017/03/23 17:00 UTC NOAA

Toronto Island Airport Automated Reporting Station, Canada (CYTZ) 43-38N 079-24W
Mar 23, 2017 - 01:00 PM EDT / 2017.03.23 1700 UTC
Wind: from the SSW (210 degrees) at 7 MPH (6 KT) (direction variable):0
Visibility: 9 mile(s):0
Sky conditions: clear
Temperature: 30 F (-1 C)
Windchill: 23 F (-5 C):1
Dew Point: 17 F (-8 C)
Relative Humidity: 58%
Pressure (altimeter): 30.6 in. Hg (1036 hPa)
ob: CYTZ 231700Z AUTO 21006KT 160V230 9SM CLR M01/M08 A3060 RMK SLP367
cycle: 17

Station Type Date Time Source
CYTZ TAF 2017/03/23 14:39 UTC NOAA

TAF TAF CYTZ 231338Z 2314/2414 26005KT P6SM FEW240
BECMG 2315/2317 20010KT
BECMG 2319/2321 12010KT
FM240000 09010KT P6SM OVC100
FM240700 15012KT P6SM -SHRASN OVC080
FM240900 19010KT 4SM -SHRASN OVC015 PROB30 2409/2411 6SM -RAPL
FM241100 19012KT 11/2SM -RA BR OVC005
BECMG 2412/2414 22015KT
RMK FCST BASED ON AUTO OBS. NXT FCST BY 232000Z


Example: see airport list